createdAt,value
2023-04-13T00:02:14.650Z,50.68
2023-04-13T00:04:41.307Z,50.94
2023-04-13T00:07:07.845Z,51.54
2023-04-13T00:09:34.515Z,50.45
2023-04-13T00:12:01.072Z,50.00
2023-04-13T00:14:27.685Z,49.66
2023-04-13T00:16:54.279Z,50.25
2023-04-13T00:19:20.862Z,49.91
2023-04-13T00:21:47.492Z,50.04
2023-04-13T00:24:14.376Z,50.32
2023-04-13T00:26:40.942Z,49.54
2023-04-13T00:29:07.514Z,49.24
2023-04-13T00:31:34.174Z,49.09
2023-04-13T00:34:00.784Z,49.52
2023-04-13T00:36:27.380Z,49.14
2023-04-13T00:38:53.928Z,49.21
2023-04-13T00:41:20.520Z,50.17
2023-04-13T00:43:47.187Z,51.67
2023-04-13T00:46:13.812Z,51.47
2023-04-13T00:48:40.384Z,50.57
2023-04-13T00:51:06.973Z,50.88
2023-04-13T00:53:33.531Z,50.35
2023-04-13T00:56:00.142Z,50.56
2023-04-13T00:58:26.712Z,50.02
2023-04-13T01:00:53.297Z,49.78
2023-04-13T01:03:20.179Z,49.93
2023-04-13T01:05:46.793Z,49.88
2023-04-13T01:08:13.331Z,50.27
2023-04-13T01:10:39.918Z,50.17
2023-04-13T01:13:06.473Z,50.17
2023-04-13T01:15:33.090Z,49.76
2023-04-13T01:17:59.746Z,51.04
2023-04-13T01:20:26.408Z,51.40
2023-04-13T01:22:53.010Z,52.47
2023-04-13T01:25:19.573Z,52.71
2023-04-13T01:27:46.129Z,52.56
2023-04-13T01:30:13.044Z,53.08
2023-04-13T01:32:39.684Z,53.27
2023-04-13T01:35:06.217Z,54.02
2023-04-13T01:37:32.784Z,54.24
2023-04-13T01:39:59.451Z,54.40
2023-04-13T01:42:26.034Z,54.53
2023-04-13T01:44:52.577Z,55.29
2023-04-13T01:47:19.221Z,55.65
2023-04-13T01:49:45.805Z,56.65
2023-04-13T01:52:12.417Z,57.73
2023-04-13T01:54:38.985Z,57.55
2023-04-13T01:57:05.592Z,57.08
2023-04-13T01:59:32.204Z,56.23
2023-04-13T02:01:58.791Z,56.21
2023-04-13T02:04:25.403Z,57.11
2023-04-13T02:06:51.999Z,57.14
2023-04-13T02:09:18.598Z,56.61
2023-04-13T02:11:45.172Z,56.22
2023-04-13T02:14:11.734Z,57.54
2023-04-13T02:16:38.333Z,57.84
2023-04-13T02:19:05.056Z,57.96
2023-04-13T02:21:31.644Z,57.90
2023-04-13T02:23:58.423Z,57.65
2023-04-13T02:26:25.150Z,57.71
2023-04-13T02:28:51.745Z,57.57
2023-04-13T02:31:18.323Z,56.88
2023-04-13T02:33:44.913Z,57.15
2023-04-13T02:36:11.478Z,56.58
2023-04-13T02:38:38.038Z,56.52
2023-04-13T02:41:04.888Z,56.73
2023-04-13T02:43:31.441Z,56.20
2023-04-13T02:45:58.078Z,56.54
2023-04-13T02:48:24.676Z,56.00
2023-04-13T02:50:51.262Z,56.17
2023-04-13T02:53:17.883Z,56.63
2023-04-13T02:55:44.582Z,56.55
2023-04-13T02:58:11.248Z,56.78
2023-04-13T03:00:37.780Z,57.13
2023-04-13T03:03:04.381Z,57.65
2023-04-13T03:05:38.539Z,57.56
2023-04-13T03:08:05.165Z,58.63
2023-04-13T03:10:31.852Z,59.58
2023-04-13T03:12:58.435Z,58.99
2023-04-13T03:15:25.007Z,58.95
2023-04-13T03:17:51.600Z,59.09
2023-04-13T03:20:18.343Z,60.07
2023-04-13T03:22:44.897Z,60.51
2023-04-13T03:25:11.446Z,61.07
2023-04-13T03:27:38.007Z,62.51
2023-04-13T03:30:04.544Z,62.44
2023-04-13T03:32:31.126Z,61.54
2023-04-13T03:34:57.733Z,61.77
2023-04-13T03:37:24.343Z,61.03
2023-04-13T03:39:50.883Z,60.19
2023-04-13T03:42:17.450Z,60.56
2023-04-13T03:44:44.025Z,59.99
2023-04-13T03:47:12.910Z,59.63
2023-04-13T03:49:39.465Z,59.37
2023-04-13T03:52:06.005Z,59.46
2023-04-13T03:54:32.616Z,60.37
2023-04-13T03:56:59.184Z,60.16
2023-04-13T03:59:25.750Z,60.94
2023-04-13T04:01:52.396Z,62.13
2023-04-13T04:04:19.193Z,61.80
2023-04-13T04:06:45.821Z,62.34
2023-04-13T04:09:12.402Z,61.87
2023-04-13T04:11:39.000Z,62.20
2023-04-13T04:14:05.553Z,61.85
2023-04-13T04:16:32.147Z,62.04
2023-04-13T04:18:58.897Z,61.80
2023-04-13T04:21:25.632Z,61.39
2023-04-13T04:23:52.282Z,61.79
2023-04-13T04:26:18.870Z,61.88
2023-04-13T04:28:45.464Z,62.85
2023-04-13T04:31:12.149Z,62.37
2023-04-13T04:33:38.789Z,62.87
2023-04-13T04:36:05.417Z,62.66
2023-04-13T04:38:32.314Z,62.26
2023-04-13T04:40:58.864Z,62.10
2023-04-13T04:43:25.598Z,61.55
2023-04-13T04:45:52.285Z,62.95
2023-04-13T04:48:19.024Z,62.43
2023-04-13T04:50:45.574Z,62.18
2023-04-13T04:53:12.140Z,63.63
2023-04-13T04:55:38.809Z,63.48
2023-04-13T04:58:05.374Z,63.51
2023-04-13T05:00:31.975Z,63.14
2023-04-13T05:02:58.710Z,63.09
2023-04-13T05:05:25.391Z,63.90
2023-04-13T05:07:51.990Z,64.16
2023-04-13T05:10:18.564Z,63.89
2023-04-13T05:12:45.237Z,63.97
2023-04-13T05:15:12.239Z,64.53
2023-04-13T05:17:38.822Z,64.71
2023-04-13T05:20:05.715Z,64.44
2023-04-13T05:22:32.365Z,64.04
2023-04-13T05:24:58.994Z,64.25
2023-04-13T05:27:25.566Z,63.73
2023-04-13T05:29:52.109Z,63.27
2023-04-13T05:32:18.713Z,63.65
2023-04-13T05:34:45.272Z,64.37
2023-04-13T05:37:11.848Z,63.96
2023-04-13T05:39:38.413Z,63.68
2023-04-13T05:42:05.000Z,64.06
2023-04-13T05:44:31.654Z,64.18
2023-04-13T05:46:58.290Z,64.47
2023-04-13T05:49:24.944Z,64.25
2023-04-13T05:51:51.500Z,64.64
2023-04-13T05:54:18.086Z,65.85
2023-04-13T05:56:44.685Z,65.84
2023-04-13T05:59:11.266Z,65.25
2023-04-13T06:01:37.930Z,64.86
2023-04-13T06:04:05.005Z,66.16
2023-04-13T06:06:31.790Z,65.27
2023-04-13T06:08:59.018Z,64.85
2023-04-13T06:11:25.765Z,64.08
2023-04-13T06:13:52.347Z,64.06
2023-04-13T06:16:21.050Z,63.99
2023-04-13T06:18:48.324Z,63.88
2023-04-13T06:21:15.094Z,63.87
2023-04-13T06:23:41.658Z,63.49
2023-04-13T06:26:08.290Z,63.92
2023-04-13T06:28:35.070Z,63.71
2023-04-13T06:31:02.067Z,63.63
2023-04-13T06:33:28.847Z,64.12
2023-04-13T06:35:55.418Z,63.75
2023-04-13T06:38:22.030Z,63.60
2023-04-13T06:40:48.601Z,63.69
2023-04-13T06:43:26.151Z,63.49
2023-04-13T06:45:55.545Z,63.86
2023-04-13T06:48:22.228Z,63.42
2023-04-13T06:50:48.926Z,63.42
2023-04-13T06:53:15.511Z,64.45
2023-04-13T06:55:42.079Z,64.11
2023-04-13T06:58:08.690Z,63.92
2023-04-13T07:00:35.361Z,63.50
2023-04-13T07:03:02.212Z,63.77
2023-04-13T07:05:28.990Z,63.85
2023-04-13T07:07:55.600Z,63.87
2023-04-13T07:10:22.237Z,63.92
2023-04-13T07:12:48.976Z,64.97
2023-04-13T07:15:15.752Z,64.46
2023-04-13T07:17:42.436Z,63.37
2023-04-13T07:20:09.027Z,64.25
2023-04-13T07:22:36.052Z,63.80
2023-04-13T07:25:02.667Z,63.56
2023-04-13T07:27:29.260Z,64.31
2023-04-13T07:29:55.863Z,63.78
2023-04-13T07:32:25.986Z,63.28
2023-04-13T07:34:57.069Z,62.72
2023-04-13T07:37:23.621Z,62.28
2023-04-13T07:39:50.225Z,63.89
2023-04-13T07:42:16.787Z,64.57
2023-04-13T07:44:43.363Z,64.27
2023-04-13T07:47:10.082Z,64.59
2023-04-13T07:49:36.717Z,63.40
2023-04-13T07:52:03.577Z,62.81
2023-04-13T07:54:30.339Z,62.74
2023-04-13T07:56:57.108Z,62.72
2023-04-13T07:59:25.170Z,62.09
2023-04-13T08:01:52.001Z,61.90
2023-04-13T08:04:18.713Z,61.72
2023-04-13T08:06:45.369Z,61.62
2023-04-13T08:09:11.942Z,61.09
2023-04-13T08:11:38.543Z,60.76
2023-04-13T08:14:05.142Z,60.36
2023-04-13T08:16:31.766Z,59.90
2023-04-13T08:18:58.643Z,60.39
2023-04-13T08:21:25.358Z,60.20
2023-04-13T08:23:51.948Z,60.15
2023-04-13T08:26:18.539Z,60.95
2023-04-13T08:28:45.181Z,61.01
2023-04-13T08:31:11.820Z,60.45
2023-04-13T08:33:38.447Z,60.17
2023-04-13T08:36:05.062Z,60.30
2023-04-13T08:38:31.635Z,60.21
2023-04-13T08:40:58.216Z,59.64
2023-04-13T08:43:24.889Z,59.05
2023-04-13T08:45:51.838Z,59.04
2023-04-13T08:48:18.489Z,59.61
2023-04-13T08:50:45.080Z,59.71
2023-04-13T08:53:11.684Z,59.50
2023-04-13T08:55:38.586Z,59.59
2023-04-13T08:58:05.173Z,59.21
2023-04-13T09:00:31.764Z,59.35
2023-04-13T09:03:04.473Z,59.77
2023-04-13T09:05:31.943Z,60.56
2023-04-13T09:07:58.540Z,59.34
2023-04-13T09:10:25.180Z,59.01
2023-04-13T09:12:52.186Z,58.49
2023-04-13T09:15:18.770Z,58.22
2023-04-13T09:17:45.397Z,58.41
2023-04-13T09:20:12.007Z,58.06
2023-04-13T09:22:38.953Z,58.30
2023-04-13T09:25:05.555Z,58.61
2023-04-13T09:27:32.102Z,58.53
2023-04-13T09:29:58.687Z,59.12
2023-04-13T09:32:25.349Z,59.18
2023-04-13T09:34:51.936Z,59.08
2023-04-13T09:37:18.751Z,59.44
2023-04-13T09:39:45.402Z,60.31
2023-04-13T09:42:12.004Z,60.62
2023-04-13T09:44:38.599Z,60.43
2023-04-13T09:47:05.193Z,60.85
2023-04-13T09:49:31.845Z,60.88
2023-04-13T09:51:58.788Z,60.46
2023-04-13T09:54:25.356Z,60.96
2023-04-13T09:56:52.639Z,60.99
2023-04-13T09:59:19.691Z,59.36
2023-04-13T10:01:46.661Z,59.49
2023-04-13T10:04:13.398Z,60.02
2023-04-13T10:06:40.015Z,58.94
2023-04-13T10:09:06.574Z,58.41
2023-04-13T10:11:33.166Z,59.46
2023-04-13T10:14:00.097Z,59.18
2023-04-13T10:16:26.994Z,60.35
2023-04-13T10:18:53.641Z,60.11
2023-04-13T10:21:20.198Z,59.60
2023-04-13T10:23:46.898Z,61.15
2023-04-13T10:26:13.583Z,60.65
2023-04-13T10:28:40.553Z,59.84
2023-04-13T10:31:08.351Z,59.02
2023-04-13T10:33:35.128Z,57.87
2023-04-13T10:36:01.707Z,59.20
2023-04-13T10:38:28.382Z,59.11
2023-04-13T10:40:54.980Z,58.52
2023-04-13T10:43:21.634Z,59.77
2023-04-13T10:45:48.235Z,59.31
2023-04-13T10:48:14.895Z,59.03
2023-04-13T10:50:41.512Z,59.59
2023-04-13T10:53:08.114Z,60.13
2023-04-13T10:55:34.739Z,59.54
2023-04-13T10:58:01.303Z,60.67
2023-04-13T11:00:38.301Z,61.30
2023-04-13T11:03:11.973Z,60.68
2023-04-13T11:05:38.605Z,60.48
2023-04-13T11:08:05.123Z,60.28
2023-04-13T11:10:31.816Z,60.35
2023-04-13T11:12:58.412Z,59.19
2023-04-13T11:15:25.138Z,58.28
2023-04-13T11:17:51.776Z,58.74
2023-04-13T11:20:18.446Z,57.55
2023-04-13T11:22:47.392Z,57.16
2023-04-13T11:25:14.325Z,57.62
2023-04-13T11:27:40.970Z,57.36
2023-04-13T11:30:07.609Z,57.18
2023-04-13T11:32:34.268Z,57.83
2023-04-13T11:35:03.566Z,57.01
2023-04-13T11:37:30.134Z,56.52
2023-04-13T11:39:56.710Z,57.18
2023-04-13T11:42:23.407Z,57.40
2023-04-13T11:44:50.049Z,56.56
2023-04-13T11:47:16.618Z,57.35
2023-04-13T11:49:43.276Z,57.34
2023-04-13T11:52:09.839Z,57.93
2023-04-13T11:54:36.441Z,57.30
2023-04-13T11:57:03.045Z,57.94
2023-04-13T11:59:29.638Z,57.15
2023-04-13T12:02:02.668Z,56.76
2023-04-13T12:04:30.671Z,56.85
2023-04-13T12:06:57.585Z,57.22
2023-04-13T12:09:40.069Z,57.52
2023-04-13T12:12:46.293Z,56.39
2023-04-13T12:15:15.339Z,57.53
2023-04-13T12:17:50.098Z,58.19
2023-04-13T12:20:23.508Z,57.38
2023-04-13T12:22:57.558Z,54.47
2023-04-13T12:25:35.432Z,57.37
2023-04-13T12:28:02.848Z,57.25
2023-04-13T12:30:29.434Z,57.10
2023-04-13T12:32:56.029Z,55.18
2023-04-13T12:35:22.785Z,55.72
2023-04-13T12:37:49.467Z,55.34
2023-04-13T12:40:16.071Z,55.71
2023-04-13T12:42:42.633Z,56.27
2023-04-13T12:45:09.411Z,56.73
2023-04-13T12:47:36.076Z,55.57
2023-04-13T12:50:02.804Z,56.67
2023-04-13T12:52:29.425Z,55.61
2023-04-13T12:54:56.099Z,56.32
2023-04-13T12:57:22.719Z,56.62
2023-04-13T12:59:49.288Z,56.18
2023-04-13T13:02:15.915Z,56.02
2023-04-13T13:04:42.624Z,56.17
2023-04-13T13:07:09.257Z,58.02
2023-04-13T13:09:35.820Z,57.53
2023-04-13T13:12:02.556Z,57.07
2023-04-13T13:14:30.441Z,56.76
2023-04-13T13:16:57.068Z,57.34
2023-04-13T13:19:23.652Z,57.80
2023-04-13T13:21:50.223Z,58.01
2023-04-13T13:24:16.806Z,56.21
2023-04-13T13:27:07.641Z,56.79
2023-04-13T13:29:30.009Z,56.36
2023-04-13T13:31:56.746Z,57.20
2023-04-13T13:34:23.393Z,56.60
2023-04-13T13:36:50.092Z,56.78
2023-04-13T13:39:16.658Z,57.19
2023-04-13T13:41:43.265Z,56.52
2023-04-13T13:44:09.873Z,56.15
2023-04-13T13:46:36.530Z,55.21
2023-04-13T13:49:03.436Z,56.23
2023-04-13T13:51:30.240Z,55.28
2023-04-13T13:53:56.846Z,55.08
2023-04-13T13:56:23.420Z,56.42
2023-04-13T13:58:50.019Z,55.63
2023-04-13T14:01:16.745Z,56.01
2023-04-13T14:03:43.558Z,56.02
2023-04-13T14:06:10.188Z,56.30
2023-04-13T14:08:36.791Z,56.93
2023-04-13T14:11:04.368Z,56.84
2023-04-13T14:13:30.976Z,56.62
2023-04-13T14:15:57.636Z,56.39
2023-04-13T14:18:24.322Z,56.65
2023-04-13T14:20:51.009Z,57.75
2023-04-13T14:23:18.633Z,57.59
2023-04-13T14:25:45.250Z,56.72
2023-04-13T14:28:11.814Z,56.75
2023-04-13T14:30:38.537Z,56.88
2023-04-13T14:33:05.167Z,57.16
2023-04-13T14:35:32.158Z,57.18
2023-04-13T14:37:58.748Z,57.39
2023-04-13T14:40:25.326Z,57.32
2023-04-13T14:42:51.941Z,57.88
2023-04-13T14:45:18.551Z,57.87
2023-04-13T14:47:45.208Z,58.68
2023-04-13T14:50:11.858Z,59.62
2023-04-13T14:52:38.440Z,59.11
2023-04-13T14:55:05.110Z,58.96
2023-04-13T14:57:31.700Z,59.32
2023-04-13T14:59:58.346Z,59.13
2023-04-13T15:02:25.135Z,58.82
2023-04-13T15:04:52.103Z,59.13
2023-04-13T15:07:18.889Z,59.87
2023-04-13T15:09:45.665Z,59.82
2023-04-13T15:12:13.760Z,59.14
2023-04-13T15:14:40.590Z,58.73
2023-04-13T15:17:07.315Z,58.76
2023-04-13T15:19:34.055Z,58.20
2023-04-13T15:22:00.680Z,57.51
2023-04-13T15:24:27.248Z,58.21
2023-04-13T15:26:53.948Z,58.61
2023-04-13T15:29:20.562Z,59.01
2023-04-13T15:31:47.133Z,59.09
2023-04-13T15:34:13.811Z,59.14
2023-04-13T15:36:40.391Z,58.92
2023-04-13T15:39:07.014Z,59.52
2023-04-13T15:41:33.594Z,59.54
2023-04-13T15:44:00.240Z,59.84
2023-04-13T15:46:26.881Z,60.20
2023-04-13T15:48:53.472Z,60.28
2023-04-13T15:51:22.622Z,60.18
2023-04-13T15:53:50.133Z,59.65
2023-04-13T15:56:16.743Z,59.63
2023-04-13T15:58:43.401Z,59.67
2023-04-13T16:01:10.378Z,61.00
2023-04-13T16:03:37.227Z,61.53
2023-04-13T16:06:06.325Z,60.88
2023-04-13T16:08:32.993Z,61.53
2023-04-13T16:10:59.675Z,61.18
2023-04-13T16:13:34.650Z,61.08
2023-04-13T16:16:08.028Z,61.32
2023-04-13T16:18:34.752Z,61.23
2023-04-13T16:21:01.438Z,60.79
2023-04-13T16:23:31.149Z,60.75
2023-04-13T16:25:57.745Z,61.16
2023-04-13T16:28:24.369Z,61.20
2023-04-13T16:30:50.989Z,61.42
2023-04-13T16:33:17.750Z,60.75
2023-04-13T16:35:44.573Z,61.52
2023-04-13T16:38:11.142Z,61.33
2023-04-13T16:40:38.261Z,61.82
2023-04-13T16:43:04.852Z,61.52
2023-04-13T16:45:31.491Z,61.68
2023-04-13T16:47:58.261Z,61.50
2023-04-13T16:50:25.303Z,61.58
2023-04-13T16:52:51.932Z,61.96
2023-04-13T16:55:18.547Z,61.75
2023-04-13T16:57:45.160Z,61.82
2023-04-13T17:00:11.749Z,61.76
2023-04-13T17:02:38.496Z,61.47
2023-04-13T17:05:05.359Z,61.56
2023-04-13T17:07:32.025Z,61.06
2023-04-13T17:09:58.694Z,61.24
2023-04-13T17:12:25.403Z,61.53
2023-04-13T17:14:52.041Z,61.67
2023-04-13T17:17:18.706Z,61.61
2023-04-13T17:19:45.287Z,61.79
2023-04-13T17:22:14.926Z,61.85
2023-04-13T17:24:41.573Z,62.16
2023-04-13T17:27:08.153Z,62.34
2023-04-13T17:29:35.458Z,62.23
2023-04-13T17:32:02.138Z,62.18
2023-04-13T17:34:28.852Z,62.50
2023-04-13T17:36:55.995Z,62.64
2023-04-13T17:39:22.600Z,62.17
2023-04-13T17:41:49.333Z,62.20
2023-04-13T17:44:15.903Z,62.18
2023-04-13T17:46:42.503Z,62.47
2023-04-13T17:49:09.488Z,62.77
2023-04-13T17:51:36.134Z,62.36
2023-04-13T17:54:02.861Z,61.97
2023-04-13T17:56:29.480Z,62.69
2023-04-13T17:58:56.123Z,63.04
2023-04-13T18:01:22.843Z,62.32
2023-04-13T18:03:49.630Z,61.66
2023-04-13T18:06:16.325Z,61.66
2023-04-13T18:08:42.999Z,62.28
2023-04-13T18:11:09.778Z,62.16
2023-04-13T18:13:36.611Z,62.59
2023-04-13T18:16:03.281Z,61.84
2023-04-13T18:18:29.910Z,62.02
2023-04-13T18:20:56.776Z,61.56
2023-04-13T18:23:23.467Z,61.37
2023-04-13T18:25:50.064Z,61.19
2023-04-13T18:28:16.701Z,61.59
2023-04-13T18:30:43.366Z,61.82
2023-04-13T18:33:09.967Z,61.91
2023-04-13T18:35:36.633Z,62.63
2023-04-13T18:38:03.226Z,62.48
2023-04-13T18:40:29.884Z,62.53
2023-04-13T18:42:56.508Z,62.82
2023-04-13T18:45:23.121Z,63.11
2023-04-13T18:47:49.817Z,63.23
2023-04-13T18:50:16.442Z,62.68
2023-04-13T18:52:43.291Z,62.96
2023-04-13T18:55:09.880Z,63.06
2023-04-13T18:57:36.893Z,62.90
2023-04-13T19:00:03.501Z,62.79
2023-04-13T19:02:30.296Z,62.31
2023-04-13T19:04:57.174Z,62.45
2023-04-13T19:07:23.880Z,62.38
2023-04-13T19:09:50.583Z,62.88
2023-04-13T19:12:17.208Z,62.90
2023-04-13T19:14:43.833Z,62.62
2023-04-13T19:17:11.945Z,63.08
2023-04-13T19:19:38.632Z,64.12
2023-04-13T19:22:05.327Z,64.43
2023-04-13T19:24:31.918Z,63.68
2023-04-13T19:26:58.598Z,63.78
2023-04-13T19:29:25.229Z,63.52
2023-04-13T19:31:52.010Z,63.61
2023-04-13T19:34:18.765Z,63.04
2023-04-13T19:36:45.546Z,62.96
2023-04-13T19:39:12.162Z,62.64
2023-04-13T19:41:38.737Z,63.20
2023-04-13T19:44:05.336Z,63.54
2023-04-13T19:46:32.208Z,63.11
2023-04-13T19:48:58.989Z,62.70
2023-04-13T19:51:25.653Z,62.81
2023-04-13T19:53:52.263Z,62.41
2023-04-13T19:56:18.931Z,62.39
2023-04-13T19:58:45.599Z,62.22
2023-04-13T20:01:12.509Z,61.90
2023-04-13T20:03:39.718Z,62.25
2023-04-13T20:06:07.591Z,61.78
2023-04-13T20:08:34.297Z,61.99
2023-04-13T20:11:00.894Z,62.23
2023-04-13T20:13:27.654Z,61.68
2023-04-13T20:15:54.349Z,62.56
2023-04-13T20:18:21.011Z,63.26
2023-04-13T20:20:47.687Z,63.46
2023-04-13T20:23:14.275Z,63.43
2023-04-13T20:25:40.886Z,63.21
2023-04-13T20:28:07.542Z,62.95
2023-04-13T20:30:34.240Z,63.05
2023-04-13T20:33:00.874Z,62.87
2023-04-13T20:35:27.564Z,62.58
2023-04-13T20:37:54.162Z,62.97
2023-04-13T20:40:20.803Z,63.05
2023-04-13T20:42:47.417Z,62.94
2023-04-13T20:45:14.113Z,62.83
2023-04-13T20:47:40.819Z,62.60
2023-04-13T20:50:07.429Z,62.15
2023-04-13T20:52:34.014Z,62.93
2023-04-13T20:55:00.652Z,62.77
2023-04-13T20:57:27.308Z,62.83
2023-04-13T20:59:53.878Z,63.02
2023-04-13T21:02:20.584Z,62.72
2023-04-13T21:04:47.247Z,63.53
2023-04-13T21:07:13.885Z,63.37
2023-04-13T21:09:40.619Z,63.74
2023-04-13T21:12:07.315Z,63.20
2023-04-13T21:14:33.930Z,62.76
2023-04-13T21:17:00.530Z,62.48
2023-04-13T21:19:27.131Z,63.07
2023-04-13T21:21:53.819Z,62.33
2023-04-13T21:24:20.448Z,62.75
2023-04-13T21:26:47.039Z,62.65
2023-04-13T21:29:13.733Z,63.95
2023-04-13T21:31:40.343Z,64.20
2023-04-13T21:34:06.957Z,63.63
2023-04-13T21:39:03.548Z,63.43
2023-04-13T21:41:30.125Z,63.28
2023-04-13T21:43:56.825Z,63.25
2023-04-13T21:46:23.499Z,62.69
2023-04-13T21:48:50.243Z,63.80
2023-04-13T21:51:16.875Z,63.98
2023-04-13T21:53:43.492Z,63.74
2023-04-13T21:56:10.078Z,63.50
2023-04-13T21:58:36.722Z,64.28
2023-04-13T22:01:03.412Z,64.10
2023-04-13T22:03:30.320Z,64.92
2023-04-13T22:05:57.058Z,64.45
2023-04-13T22:08:23.665Z,65.14
2023-04-13T22:10:50.271Z,64.10
2023-04-13T22:13:16.945Z,63.77
2023-04-13T22:15:43.670Z,64.44
2023-04-13T22:18:10.331Z,63.48
2023-04-13T22:20:37.005Z,65.49
2023-04-13T22:23:03.635Z,64.94
2023-04-13T22:25:30.249Z,65.25
2023-04-13T22:27:56.970Z,65.32
2023-04-13T22:30:24.130Z,65.28
2023-04-13T22:32:50.824Z,65.11
2023-04-13T22:35:17.643Z,65.38
2023-04-13T22:37:44.235Z,65.20
2023-04-13T22:40:10.981Z,65.16
2023-04-13T22:42:37.572Z,64.40
2023-04-13T22:45:04.484Z,65.22
2023-04-13T22:47:31.100Z,65.20
2023-04-13T22:49:57.883Z,66.66
2023-04-13T22:52:24.879Z,67.14
2023-04-13T22:54:51.441Z,68.03
2023-04-13T22:57:18.026Z,66.96
2023-04-13T22:59:44.628Z,66.97
2023-04-13T23:02:11.436Z,66.83
2023-04-13T23:04:38.206Z,67.01
2023-04-13T23:07:04.857Z,66.96
2023-04-13T23:09:31.488Z,67.25
2023-04-13T23:11:58.081Z,67.14
2023-04-13T23:14:24.741Z,67.12
2023-04-13T23:16:51.373Z,66.86
2023-04-13T23:19:17.994Z,66.41
2023-04-13T23:21:44.601Z,66.25
2023-04-13T23:24:11.251Z,66.38
2023-04-13T23:26:37.916Z,66.50
2023-04-13T23:29:04.575Z,66.72
2023-04-13T23:31:31.966Z,66.81
2023-04-13T23:33:58.638Z,67.26
2023-04-13T23:36:25.308Z,66.87
2023-04-13T23:38:52.079Z,66.27
2023-04-13T23:41:19.161Z,65.72
2023-04-13T23:43:46.082Z,65.96
2023-04-13T23:46:12.757Z,66.42
2023-04-13T23:48:39.521Z,65.37
2023-04-13T23:51:06.101Z,64.99
2023-04-13T23:53:32.858Z,65.48
2023-04-13T23:55:59.452Z,66.18
2023-04-13T23:58:26.028Z,65.43
